Time;durP1;ratioP1;P1;durP2;ratioP2;P2;SDS_P1;SDS_P2;PMS_P1;PMS_P2;Temp;Humidity;BMP_temperature;BMP_pressure;BME280_temperature;BME280_humidity;BME280_pressure;Samples;Min_cycle;Max_cycle;Signal;HPM_P1;HPM_P2
2022/11/25 00:00:54;;;;;;;11.60;11.20;;;21.10;58.00;;;;;;5052296;28;20447;-59
2022/11/25 00:03:21;;;;;;;12.40;11.60;;;21.00;58.20;;;;;;5054866;28;20436;-58
2022/11/25 00:05:48;;;;;;;11.07;10.67;;;20.90;58.60;;;;;;5055104;28;21002;-59
2022/11/25 00:08:14;;;;;;;11.27;10.90;;;20.80;58.60;;;;;;5055009;28;20507;-59
2022/11/25 00:10:41;;;;;;;11.50;11.03;;;20.70;58.90;;;;;;5054948;28;20476;-60
2022/11/25 00:13:08;;;;;;;10.60;10.20;;;20.60;59.00;;;;;;5054707;28;20475;-56
2022/11/25 00:15:35;;;;;;;11.53;11.10;;;20.50;59.20;;;;;;5054897;28;20830;-57
2022/11/25 00:18:03;;;;;;;10.80;10.07;;;20.50;59.40;;;;;;5046073;28;20461;-59
2022/11/25 00:20:30;;;;;;;10.13;9.83;;;20.40;60.10;;;;;;5034953;28;20524;-57
2022/11/25 00:22:57;;;;;;;10.87;10.20;;;20.30;59.70;;;;;;5035964;28;20812;-60
2022/11/25 00:25:24;;;;;;;10.33;10.00;;;20.30;59.90;;;;;;5034834;28;20544;-59
2022/11/25 00:27:52;;;;;;;10.57;10.20;;;20.30;60.10;;;;;;5034792;28;20559;-60
2022/11/25 00:30:19;;;;;;;10.33;9.83;;;20.20;60.00;;;;;;5034630;28;20924;-60
2022/11/25 00:32:46;;;;;;;10.53;10.13;;;20.20;60.20;;;;;;5034315;28;20567;-60
2022/11/25 00:35:14;;;;;;;10.90;10.40;;;20.10;60.30;;;;;;5034637;28;20450;-60
2022/11/25 00:37:41;;;;;;;10.40;9.90;;;20.10;60.50;;;;;;5043065;28;20464;-59
2022/11/25 00:40:09;;;;;;;10.67;9.97;;;20.10;60.80;;;;;;5047413;28;20567;-57
2022/11/25 00:45:20;;;;;;;10.80;10.40;;;20.00;61.90;;;;;;5046418;28;20428;-59
2022/11/25 00:47:47;;;;;;;10.43;10.03;;;19.90;61.30;;;;;;5035325;28;20476;-57
2022/11/25 00:50:15;;;;;;;10.53;10.03;;;19.90;61.50;;;;;;5050522;28;20452;-59
2022/11/25 00:52:42;;;;;;;10.50;10.10;;;19.90;61.60;;;;;;5052143;28;20479;-56
2022/11/25 00:55:09;;;;;;;10.50;9.90;;;19.90;61.70;;;;;;5037578;28;20449;-57
2022/11/25 00:57:36;;;;;;;11.10;10.70;;;19.80;61.70;;;;;;5036161;28;20468;-58
2022/11/25 01:00:04;;;;;;;10.67;10.23;;;19.90;62.80;;;;;;5054108;28;20442;-58
2022/11/25 01:02:30;;;;;;;10.50;10.20;;;19.80;61.90;;;;;;5040789;28;21153;-55
2022/11/25 01:04:57;;;;;;;10.30;9.90;;;19.80;62.00;;;;;;5053910;28;20514;-57
2022/11/25 01:07:25;;;;;;;10.20;9.80;;;19.80;62.10;;;;;;5078766;22;20820;-64
2022/11/25 01:09:52;;;;;;;10.37;10.03;;;19.80;62.20;;;;;;5037296;28;20564;-64
2022/11/25 01:12:19;;;;;;;10.10;9.70;;;19.80;62.30;;;;;;5036946;28;21030;-64
2022/11/25 01:14:46;;;;;;;11.60;11.00;;;19.80;62.30;;;;;;5036743;28;20965;-64
2022/11/25 01:17:13;;;;;;;12.20;11.50;;;19.80;62.50;;;;;;5036036;28;20501;-64
2022/11/25 01:19:40;;;;;;;11.40;11.00;;;19.80;62.60;;;;;;5003609;28;20446;-64
2022/11/25 01:22:07;;;;;;;11.13;10.63;;;19.70;62.50;;;;;;5015386;28;20936;-64
2022/11/25 01:24:36;;;;;;;10.33;9.83;;;19.70;62.60;;;;;;5004720;28;20443;-64
2022/11/25 01:27:03;;;;;;;10.87;10.37;;;19.70;62.70;;;;;;4995440;28;20479;-64
2022/11/25 01:29:29;;;;;;;10.43;10.13;;;19.70;62.70;;;;;;4996023;28;20498;-63
2022/11/25 01:31:57;;;;;;;10.70;10.20;;;19.70;62.80;;;;;;5010247;28;20888;-61
2022/11/25 01:34:25;;;;;;;9.93;9.63;;;19.70;62.90;;;;;;5003618;28;20546;-64
2022/11/25 01:36:52;;;;;;;10.83;10.53;;;19.70;63.00;;;;;;5016886;28;20533;-64
2022/11/25 01:39:21;;;;;;;10.20;9.70;;;19.60;62.90;;;;;;5007733;28;21041;-64
2022/11/25 01:41:50;;;;;;;10.10;9.80;;;19.60;63.00;;;;;;4997150;28;20455;-64
2022/11/25 01:44:18;;;;;;;10.90;10.50;;;19.60;63.10;;;;;;4997291;28;20546;-64
2022/11/25 01:46:59;;;;;;;11.37;11.00;;;19.60;63.20;;;;;;4997112;28;20530;-64
2022/11/25 01:49:31;;;;;;;9.53;9.33;;;19.60;63.20;;;;;;4994028;28;20890;-62
2022/11/25 01:52:05;;;;;;;10.77;10.37;;;19.60;63.30;;;;;;5005509;28;20848;-63
2022/11/25 01:54:36;;;;;;;10.20;9.90;;;19.60;63.40;;;;;;5013278;28;20481;-60
2022/11/25 01:57:08;;;;;;;10.60;10.10;;;19.60;63.50;;;;;;5013308;28;20478;-63
2022/11/25 01:59:39;;;;;;;11.03;10.53;;;19.60;63.60;;;;;;5013170;28;20466;-63
2022/11/25 02:02:08;;;;;;;10.37;9.80;;;19.60;63.60;;;;;;5013143;28;20450;-62
2022/11/25 02:04:38;;;;;;;10.00;9.60;;;19.50;63.60;;;;;;5013167;28;20442;-60
2022/11/25 02:07:10;;;;;;;10.53;9.97;;;19.50;63.70;;;;;;5013201;28;20543;-63
2022/11/25 02:09:41;;;;;;;9.90;9.60;;;19.50;63.70;;;;;;5012828;28;20917;-63
2022/11/25 02:12:10;;;;;;;10.23;9.83;;;19.50;63.70;;;;;;5012968;28;20532;-63
2022/11/25 02:14:37;;;;;;;10.40;10.07;;;19.50;63.80;;;;;;5012748;28;21004;-63
2022/11/25 02:17:04;;;;;;;10.23;9.83;;;19.50;63.70;;;;;;5012966;28;20485;-63
2022/11/25 02:19:43;;;;;;;9.30;9.10;;;19.50;63.90;;;;;;5012767;28;20478;-62
2022/11/25 02:22:22;;;;;;;9.70;9.40;;;19.50;64.00;;;;;;5012664;28;20481;-62
2022/11/25 02:24:55;;;;;;;10.80;10.40;;;19.50;64.00;;;;;;5012283;28;20896;-63
2022/11/25 02:27:23;;;;;;;10.73;10.33;;;19.40;64.00;;;;;;5012537;28;20446;-63
2022/11/25 02:29:51;;;;;;;9.40;9.10;;;19.40;64.10;;;;;;5012710;28;20874;-63
2022/11/25 02:32:21;;;;;;;10.20;9.90;;;19.40;64.10;;;;;;5012481;28;20473;-63
2022/11/25 02:34:48;;;;;;;10.80;10.30;;;19.40;64.50;;;;;;5012507;28;20485;-63
2022/11/25 02:37:17;;;;;;;10.10;9.63;;;19.40;64.60;;;;;;5012504;28;20875;-63
2022/11/25 02:39:46;;;;;;;10.40;10.10;;;19.40;64.80;;;;;;4995167;28;20884;-63
2022/11/25 02:42:13;;;;;;;9.50;9.20;;;19.40;65.00;;;;;;4992912;28;20891;-63
2022/11/25 02:44:41;;;;;;;10.00;9.60;;;19.40;65.00;;;;;;5010262;28;20496;-62
2022/11/25 02:47:08;;;;;;;10.53;10.13;;;19.40;65.00;;;;;;5012402;28;20454;-63
2022/11/25 02:49:34;;;;;;;10.10;9.80;;;19.30;65.10;;;;;;5009616;28;20472;-63
2022/11/25 02:52:01;;;;;;;10.60;10.20;;;19.40;65.30;;;;;;4996042;28;20757;-63
2022/11/25 02:54:28;;;;;;;10.30;10.00;;;19.40;66.20;;;;;;5007264;28;20568;-63
2022/11/25 02:56:55;;;;;;;9.50;9.27;;;19.40;65.40;;;;;;4993568;28;20534;-62
2022/11/25 02:59:22;;;;;;;12.07;11.47;;;19.40;65.40;;;;;;5003721;28;20557;-63
2022/11/25 03:01:50;;;;;;;9.43;9.13;;;19.30;65.30;;;;;;4992753;28;20442;-62
2022/11/25 03:04:17;;;;;;;10.00;9.70;;;19.30;65.40;;;;;;4998878;28;20477;-63
2022/11/25 03:06:44;;;;;;;10.57;10.27;;;19.30;65.50;;;;;;5012266;28;20773;-60
2022/11/25 03:09:11;;;;;;;10.57;10.07;;;19.30;65.40;;;;;;5012001;28;20473;-63
2022/11/25 03:14:22;;;;;;;9.80;9.60;;;19.30;65.40;;;;;;5012071;28;20975;-63
2022/11/25 03:16:50;;;;;;;11.07;10.60;;;19.30;65.50;;;;;;5002864;28;20532;-63
2022/11/25 03:19:17;;;;;;;10.60;10.10;;;19.30;65.60;;;;;;4992214;28;20473;-63
2022/11/25 03:21:43;;;;;;;10.33;9.87;;;19.30;65.60;;;;;;4992286;28;20449;-63
2022/11/25 03:24:10;;;;;;;10.43;10.10;;;19.30;66.40;;;;;;4992391;28;20483;-63
2022/11/25 03:26:37;;;;;;;11.10;10.10;;;19.30;65.70;;;;;;4992193;28;20461;-63
2022/11/25 03:29:04;;;;;;;10.67;10.27;;;19.30;65.80;;;;;;4992251;28;20469;-62
2022/11/25 03:31:31;;;;;;;11.37;10.97;;;19.30;65.90;;;;;;4992101;28;20446;-61
2022/11/25 03:33:59;;;;;;;11.00;10.50;;;19.30;66.00;;;;;;4992090;28;20487;-63
2022/11/25 03:36:26;;;;;;;10.13;9.73;;;19.30;66.00;;;;;;4994434;28;20529;-61
2022/11/25 03:38:53;;;;;;;10.27;9.97;;;19.30;66.00;;;;;;4996165;28;21029;-63
2022/11/25 03:41:19;;;;;;;10.67;10.30;;;19.30;66.10;;;;;;4996061;28;20526;-63
2022/11/25 03:43:47;;;;;;;10.27;9.97;;;19.30;66.20;;;;;;4996151;28;20449;-63
2022/11/25 03:46:14;;;;;;;10.00;9.70;;;19.30;66.20;;;;;;4996067;28;20458;-63
2022/11/25 03:48:41;;;;;;;9.90;9.60;;;19.20;66.10;;;;;;4996006;28;20463;-63
2022/11/25 03:51:09;;;;;;;10.07;9.57;;;19.20;66.20;;;;;;4995929;28;20453;-62
2022/11/25 03:53:36;;;;;;;9.43;9.10;;;19.20;66.30;;;;;;5007312;28;20477;-63
2022/11/25 03:56:03;;;;;;;9.40;9.20;;;19.20;66.40;;;;;;5015497;28;20932;-63
2022/11/25 03:58:30;;;;;;;9.50;9.20;;;19.20;66.40;;;;;;5015524;28;20572;-62
2022/11/25 04:01:00;;;;;;;9.70;9.40;;;19.20;66.50;;;;;;5015297;28;20898;-63
2022/11/25 04:03:27;;;;;;;11.30;10.80;;;19.20;66.60;;;;;;5015380;28;20465;-63
2022/11/25 04:05:54;;;;;;;10.57;9.97;;;19.20;66.60;;;;;;5015405;28;20473;-63
2022/11/25 04:08:22;;;;;;;11.13;10.83;;;19.20;66.60;;;;;;5011034;28;21087;-64
2022/11/25 04:10:49;;;;;;;9.97;9.67;;;19.20;66.70;;;;;;4995745;28;20457;-63
2022/11/25 04:13:15;;;;;;;10.37;10.07;;;19.20;66.70;;;;;;5001693;28;20846;-63
2022/11/25 04:15:44;;;;;;;10.37;10.07;;;19.20;66.60;;;;;;5015077;28;20475;-62
2022/11/25 04:18:11;;;;;;;10.47;10.17;;;19.20;66.70;;;;;;5015339;28;20313;-63
2022/11/25 04:20:38;;;;;;;10.60;10.30;;;19.20;66.80;;;;;;5015066;28;20540;-63
2022/11/25 04:23:05;;;;;;;10.47;10.17;;;19.20;66.90;;;;;;5014764;28;20928;-63
2022/11/25 04:25:34;;;;;;;10.13;9.93;;;19.20;67.70;;;;;;5007839;28;20447;-63
2022/11/25 04:28:01;;;;;;;10.23;9.90;;;19.20;67.00;;;;;;4995298;28;20472;-60
2022/11/25 04:30:28;;;;;;;10.87;10.40;;;19.20;67.10;;;;;;4995278;28;20801;-63
2022/11/25 04:32:55;;;;;;;10.43;10.13;;;19.20;67.20;;;;;;4995058;28;20446;-63
2022/11/25 04:35:22;;;;;;;10.70;10.30;;;19.20;67.10;;;;;;4995138;28;20485;-63
2022/11/25 04:37:50;;;;;;;11.10;10.70;;;19.20;67.20;;;;;;4995388;28;20474;-63
2022/11/25 04:40:17;;;;;;;11.07;10.67;;;19.20;67.30;;;;;;4995192;28;20443;-60
2022/11/25 04:42:45;;;;;;;10.60;10.30;;;19.20;67.30;;;;;;4994853;28;21026;-60
2022/11/25 04:45:15;;;;;;;10.47;10.13;;;19.20;67.30;;;;;;4995032;28;20449;-61
2022/11/25 04:47:42;;;;;;;10.60;10.30;;;19.20;67.30;;;;;;4994473;28;20891;-60
2022/11/25 04:50:14;;;;;;;10.97;10.43;;;19.20;67.40;;;;;;4995065;28;20446;-60
2022/11/25 04:52:41;;;;;;;10.63;10.23;;;19.20;67.40;;;;;;4994755;28;20521;-60
2022/11/25 04:55:09;;;;;;;10.07;9.77;;;19.20;67.40;;;;;;4994803;28;20570;-51
2022/11/25 04:57:35;;;;;;;10.20;9.80;;;19.20;67.50;;;;;;4994871;28;20547;-58
2022/11/25 05:00:04;;;;;;;10.73;10.33;;;19.10;67.40;;;;;;4994707;28;20485;-52
2022/11/25 05:02:31;;;;;;;11.17;10.83;;;19.10;67.40;;;;;;5005430;28;20446;-56
2022/11/25 05:04:57;;;;;;;11.67;11.37;;;19.10;68.30;;;;;;5014303;28;20446;-59
2022/11/25 05:07:27;;;;;;;11.70;11.40;;;19.10;67.60;;;;;;5013990;28;20533;-56
2022/11/25 05:09:54;;;;;;;12.03;11.63;;;19.10;67.60;;;;;;5014246;28;20540;-59
2022/11/25 05:12:22;;;;;;;11.97;11.63;;;19.10;67.70;;;;;;5012161;28;20529;-52
2022/11/25 05:14:50;;;;;;;11.77;11.47;;;19.10;67.70;;;;;;4999088;28;20478;-55
2022/11/25 05:17:20;;;;;;;12.17;11.77;;;19.10;67.80;;;;;;5005278;28;20538;-53
2022/11/25 05:19:47;;;;;;;11.77;11.33;;;19.10;67.90;;;;;;5002773;28;20488;-54
2022/11/25 05:22:15;;;;;;;12.27;11.97;;;19.10;68.70;;;;;;4997423;28;20478;-54
2022/11/25 05:24:42;;;;;;;12.10;11.60;;;19.10;68.10;;;;;;4997831;28;20515;-58
2022/11/25 05:27:09;;;;;;;11.70;11.30;;;19.10;68.00;;;;;;5013936;28;20537;-55
2022/11/25 05:29:37;;;;;;;11.77;11.37;;;19.10;68.00;;;;;;5013693;28;20557;-54
2022/11/25 05:32:04;;;;;;;12.83;12.37;;;19.10;68.10;;;;;;5013537;28;20446;-54
2022/11/25 05:34:33;;;;;;;13.30;12.80;;;19.10;68.10;;;;;;5012134;28;20602;-56
2022/11/25 05:37:00;;;;;;;12.40;11.97;;;19.10;68.00;;;;;;5009450;28;20446;-56
2022/11/25 05:39:26;;;;;;;12.43;12.03;;;19.10;68.10;;;;;;4994061;28;20887;-60
2022/11/25 05:41:53;;;;;;;12.50;12.10;;;19.10;68.10;;;;;;4993875;28;20997;-56
2022/11/25 05:44:20;;;;;;;12.60;12.20;;;19.10;68.00;;;;;;4993895;28;20526;-54
2022/11/25 05:46:47;;;;;;;12.87;12.47;;;19.10;68.10;;;;;;4993938;28;20546;-59
2022/11/25 05:49:14;;;;;;;12.50;12.20;;;19.10;68.00;;;;;;5009859;28;21051;-52
2022/11/25 05:51:42;;;;;;;12.57;12.07;;;19.10;68.10;;;;;;5000452;28;20888;-54
2022/11/25 05:54:09;;;;;;;12.80;12.30;;;19.10;68.10;;;;;;5013320;28;20507;-56
2022/11/25 05:56:36;;;;;;;12.20;11.67;;;19.10;68.10;;;;;;5005319;28;20439;-53
2022/11/25 05:59:04;;;;;;;12.03;11.63;;;19.10;68.10;;;;;;4992604;28;20506;-55
2022/11/25 06:01:31;;;;;;;13.40;12.90;;;19.10;68.10;;;;;;4993575;28;20569;-50
2022/11/25 06:04:00;;;;;;;11.93;11.63;;;19.10;68.10;;;;;;4993484;28;20443;-57
2022/11/25 06:06:27;;;;;;;12.93;12.60;;;19.10;68.10;;;;;;4993617;28;20493;-58
2022/11/25 06:08:55;;;;;;;13.00;12.60;;;19.10;68.10;;;;;;5002106;28;20552;-59
2022/11/25 06:11:24;;;;;;;13.10;12.70;;;19.10;68.00;;;;;;5012881;28;20481;-54
2022/11/25 06:13:51;;;;;;;12.33;12.03;;;19.10;68.10;;;;;;5012838;28;20482;-52
2022/11/25 06:16:20;;;;;;;12.90;12.40;;;19.10;68.10;;;;;;5012911;28;20533;-58
2022/11/25 06:18:47;;;;;;;12.33;11.97;;;19.10;68.10;;;;;;5013203;28;20465;-50
2022/11/25 06:21:15;;;;;;;12.10;11.80;;;19.10;69.00;;;;;;5012864;28;20525;-58
2022/11/25 06:23:43;;;;;;;12.80;12.20;;;19.10;68.40;;;;;;5012766;28;20504;-55
2022/11/25 06:26:13;;;;;;;12.70;12.30;;;19.10;68.50;;;;;;5012855;28;21016;-52
2022/11/25 06:28:40;;;;;;;12.53;12.13;;;19.10;68.70;;;;;;5012576;28;20562;-51
2022/11/25 06:31:09;;;;;;;12.43;12.07;;;19.10;68.80;;;;;;5012749;28;20441;-49
2022/11/25 06:33:36;;;;;;;13.33;12.63;;;19.10;69.20;;;;;;5012627;28;20533;-49
2022/11/25 06:36:04;;;;;;;11.73;11.33;;;19.10;69.20;;;;;;5012572;28;20508;-52
2022/11/25 06:38:31;;;;;;;12.73;12.33;;;19.10;69.20;;;;;;5012600;28;20553;-51
2022/11/25 06:41:02;;;;;;;11.67;11.33;;;19.10;69.40;;;;;;5012342;28;20885;-53
2022/11/25 06:43:30;;;;;;;12.50;12.10;;;19.10;69.50;;;;;;5012437;28;20446;-53
2022/11/25 06:46:02;;;;;;;12.47;12.03;;;19.10;69.60;;;;;;4999082;28;20517;-51
2022/11/25 06:48:29;;;;;;;12.23;11.77;;;19.10;69.80;;;;;;4992806;28;20462;-50
2022/11/25 06:50:57;;;;;;;13.43;12.73;;;19.10;69.60;;;;;;4993038;28;20453;-49
2022/11/25 06:53:24;;;;;;;13.67;12.97;;;19.10;69.60;;;;;;5010914;28;20542;-51
2022/11/25 06:56:03;;;;;;;18.90;15.20;;;19.20;69.90;;;;;;5005359;28;20569;-56
2022/11/25 06:58:32;;;;;;;15.63;14.57;;;19.30;71.50;;;;;;5003676;28;20528;-53
2022/11/25 07:01:03;;;;;;;16.33;15.10;;;19.20;73.30;;;;;;5009352;28;21020;-55
2022/11/25 07:03:30;;;;;;;15.87;14.13;;;19.30;79.30;;;;;;5002127;28;20438;-47
2022/11/25 07:05:57;;;;;;;15.03;13.70;;;19.30;80.20;;;;;;4998589;28;20539;-53
2022/11/25 07:08:25;;;;;;;17.63;15.07;;;19.30;79.70;;;;;;5048476;22;20480;-54
2022/11/25 07:10:52;;;;;;;16.37;14.90;;;19.30;77.30;;;;;;5051386;28;20539;-55
2022/11/25 07:13:19;;;;;;;18.23;16.93;;;19.40;75.80;;;;;;5051440;28;20454;-56
2022/11/25 07:15:47;;;;;;;16.67;15.57;;;19.40;75.10;;;;;;5051569;28;20483;-54
2022/11/25 07:18:14;;;;;;;16.83;15.07;;;19.50;74.60;;;;;;5051402;28;20463;-55
2022/11/25 07:20:41;;;;;;;15.43;14.40;;;19.50;74.10;;;;;;5051603;28;20444;-57
2022/11/25 07:23:08;;;;;;;14.70;13.90;;;19.50;73.50;;;;;;5051367;28;20531;-53
2022/11/25 07:25:34;;;;;;;15.73;14.13;;;19.60;73.10;;;;;;5051512;28;20899;-57
2022/11/25 07:28:01;;;;;;;16.20;15.00;;;19.50;72.50;;;;;;5051315;28;20543;-55
2022/11/25 07:30:28;;;;;;;14.40;13.50;;;19.60;72.20;;;;;;5051454;28;20535;-55
2022/11/25 07:32:56;;;;;;;15.77;14.33;;;19.60;71.80;;;;;;5051335;28;20444;-56
2022/11/25 07:35:23;;;;;;;14.90;13.50;;;19.60;71.50;;;;;;5051391;28;20916;-55
2022/11/25 07:37:51;;;;;;;15.30;14.30;;;19.60;71.20;;;;;;5051287;28;20882;-58
2022/11/25 07:40:18;;;;;;;14.47;13.57;;;19.60;70.90;;;;;;5051311;28;20444;-56
2022/11/25 07:42:45;;;;;;;15.53;14.37;;;19.60;70.60;;;;;;5051285;28;20536;-59
2022/11/25 07:45:12;;;;;;;14.90;13.70;;;19.60;70.40;;;;;;5051330;28;20467;-55
2022/11/25 07:47:39;;;;;;;15.00;14.07;;;19.60;70.30;;;;;;5051293;28;20440;-58
2022/11/25 07:50:09;;;;;;;14.20;13.20;;;19.60;70.00;;;;;;5051198;28;20538;-60
2022/11/25 07:52:38;;;;;;;14.90;14.17;;;19.60;70.00;;;;;;5051039;28;20441;-55
2022/11/25 07:55:05;;;;;;;15.90;14.63;;;19.60;69.80;;;;;;5051145;28;20476;-54
2022/11/25 07:57:32;;;;;;;14.23;13.67;;;19.60;69.60;;;;;;5051200;28;20484;-56
2022/11/25 07:59:59;;;;;;;15.63;14.70;;;19.60;69.50;;;;;;5051141;28;20468;-55
2022/11/25 08:02:26;;;;;;;16.27;14.83;;;19.60;69.30;;;;;;5050884;28;20443;-57
2022/11/25 08:04:52;;;;;;;15.50;14.70;;;19.60;69.20;;;;;;5051221;28;20931;-57
2022/11/25 08:07:20;;;;;;;15.43;14.63;;;19.60;69.00;;;;;;5051022;28;20444;-54
2022/11/25 08:09:47;;;;;;;15.27;14.30;;;19.60;68.90;;;;;;5050905;28;20507;-56
2022/11/25 08:12:14;;;;;;;15.87;14.70;;;19.60;69.40;;;;;;5050876;28;20447;-55
2022/11/25 08:14:41;;;;;;;13.37;12.73;;;19.60;68.50;;;;;;5050901;28;21032;-55
2022/11/25 08:17:08;;;;;;;13.53;12.93;;;19.60;68.30;;;;;;5050968;28;20470;-57
2022/11/25 08:19:35;;;;;;;13.87;13.10;;;19.70;68.40;;;;;;5051031;28;20512;-53
2022/11/25 08:22:02;;;;;;;14.17;13.50;;;19.60;68.20;;;;;;5051985;28;20799;-54
2022/11/25 08:24:30;;;;;;;13.60;12.90;;;19.70;68.20;;;;;;5054689;28;20531;-55
2022/11/25 08:27:00;;;;;;;14.67;13.83;;;19.70;68.00;;;;;;5054666;28;20450;-58
2022/11/25 08:29:27;;;;;;;14.00;13.20;;;19.70;67.90;;;;;;5054619;28;20460;-58
2022/11/25 08:31:53;;;;;;;14.90;14.10;;;19.80;67.90;;;;;;5054388;28;20479;-54
2022/11/25 08:34:23;;;;;;;13.63;12.87;;;19.70;67.60;;;;;;5054351;28;20531;-53
2022/11/25 08:36:50;;;;;;;13.63;13.03;;;19.80;67.60;;;;;;5054473;28;20471;-56
2022/11/25 08:39:17;;;;;;;14.17;13.57;;;19.70;67.40;;;;;;5054383;28;20892;-53
2022/11/25 08:41:46;;;;;;;13.20;12.60;;;19.70;67.20;;;;;;5054239;28;20475;-54
2022/11/25 08:44:13;;;;;;;14.50;13.60;;;19.70;67.10;;;;;;5054503;28;20812;-55
2022/11/25 08:46:40;;;;;;;13.73;13.10;;;19.70;67.00;;;;;;5054391;28;21460;-55
2022/11/25 08:49:08;;;;;;;14.47;13.67;;;19.70;67.60;;;;;;5054139;28;20503;-55
2022/11/25 08:51:37;;;;;;;15.10;14.03;;;19.80;66.80;;;;;;5054078;28;20451;-54
2022/11/25 08:54:04;;;;;;;13.47;12.83;;;19.80;66.70;;;;;;5054138;28;20538;-56
2022/11/25 08:56:31;;;;;;;14.40;13.50;;;19.80;66.70;;;;;;5054005;28;20480;-56
2022/11/25 08:59:00;;;;;;;14.67;13.80;;;19.80;66.70;;;;;;5054056;28;20487;-56
2022/11/25 09:01:28;;;;;;;13.70;13.20;;;19.80;66.60;;;;;;5053874;28;20938;-52
2022/11/25 09:03:56;;;;;;;15.17;14.20;;;19.80;66.50;;;;;;5053976;28;21014;-52
2022/11/25 09:06:24;;;;;;;14.00;13.30;;;19.80;66.40;;;;;;5053954;28;20519;-53
2022/11/25 09:08:51;;;;;;;13.73;13.23;;;19.80;66.40;;;;;;5053693;28;20472;-55
2022/11/25 09:11:18;;;;;;;14.13;13.40;;;19.80;67.10;;;;;;5053659;28;20534;-53
2022/11/25 09:13:45;;;;;;;14.93;13.50;;;19.80;66.20;;;;;;5053789;28;20467;-55
2022/11/25 09:16:14;;;;;;;14.00;13.33;;;19.80;66.20;;;;;;5053533;28;20483;-56
2022/11/25 09:18:41;;;;;;;13.93;13.27;;;19.80;66.10;;;;;;5053632;28;20464;-55
2022/11/25 09:21:09;;;;;;;13.63;13.07;;;19.80;66.00;;;;;;5053595;28;20821;-52
2022/11/25 09:23:37;;;;;;;15.07;14.47;;;19.80;66.00;;;;;;5053571;28;20451;-54
2022/11/25 09:26:05;;;;;;;14.03;13.40;;;19.80;66.00;;;;;;5053586;28;20444;-56
2022/11/25 09:28:33;;;;;;;14.50;13.70;;;19.80;66.00;;;;;;5053492;28;20587;-53
2022/11/25 09:31:05;;;;;;;13.90;13.17;;;19.70;65.80;;;;;;5053315;28;20510;-54
2022/11/25 09:33:34;;;;;;;14.43;13.93;;;19.70;65.80;;;;;;5052143;28;20814;-56
2022/11/25 09:36:01;;;;;;;14.53;14.03;;;19.70;65.60;;;;;;5053408;28;20484;-55
2022/11/25 09:38:28;;;;;;;14.80;14.27;;;19.70;65.80;;;;;;5053134;28;20499;-55
2022/11/25 09:41:00;;;;;;;14.07;13.37;;;19.80;65.80;;;;;;5053156;28;20451;-56
2022/11/25 09:46:44;;;;;;;13.03;12.43;;;19.70;65.60;;;;;;5053306;28;20578;-56
2022/11/25 09:49:29;;;;;;;13.13;12.63;;;19.70;65.50;;;;;;5053187;28;20474;-58
2022/11/25 09:52:06;;;;;;;12.97;12.47;;;19.80;65.50;;;;;;5052936;28;20506;-56
2022/11/25 09:54:38;;;;;;;12.70;12.20;;;19.70;65.30;;;;;;5053081;28;20530;-56
2022/11/25 09:57:21;;;;;;;13.00;12.40;;;19.70;65.40;;;;;;5052916;28;20572;-57
2022/11/25 09:59:57;;;;;;;13.23;12.70;;;19.70;65.40;;;;;;5052869;28;20550;-55
2022/11/25 10:02:31;;;;;;;14.20;13.40;;;19.70;65.30;;;;;;5052787;28;20836;-57
2022/11/25 10:05:06;;;;;;;13.80;13.10;;;19.70;65.30;;;;;;5052863;28;20451;-60
2022/11/25 10:07:39;;;;;;;13.90;13.10;;;19.70;65.50;;;;;;5052878;28;20536;-56
2022/11/25 10:10:12;;;;;;;12.90;12.40;;;19.70;65.70;;;;;;5052752;28;20810;-56
2022/11/25 10:12:44;;;;;;;13.03;12.53;;;19.70;65.40;;;;;;5052527;28;20791;-54
2022/11/25 10:15:17;;;;;;;13.67;13.10;;;19.70;65.30;;;;;;5052541;28;20475;-55
2022/11/25 10:17:49;;;;;;;13.70;13.20;;;19.70;65.30;;;;;;5052713;28;20772;-58
2022/11/25 10:20:22;;;;;;;13.80;13.30;;;19.70;65.20;;;;;;5052607;28;20452;-54
2022/11/25 10:22:53;;;;;;;13.60;12.90;;;19.80;65.20;;;;;;5052341;28;20483;-57
2022/11/25 10:25:23;;;;;;;13.03;12.60;;;19.80;65.20;;;;;;5052567;28;20450;-55
2022/11/25 10:27:57;;;;;;;13.70;13.20;;;19.80;65.10;;;;;;5052411;28;20530;-56
2022/11/25 10:30:25;;;;;;;14.00;13.20;;;19.80;64.90;;;;;;5052308;28;20502;-55
2022/11/25 10:32:59;;;;;;;13.83;13.23;;;19.80;65.60;;;;;;5052205;28;20443;-56
2022/11/25 10:35:33;;;;;;;13.57;12.97;;;19.90;64.90;;;;;;5052225;28;20577;-60
2022/11/25 10:38:03;;;;;;;13.53;13.03;;;19.90;64.80;;;;;;5052278;28;20983;-54
2022/11/25 10:40:30;;;;;;;12.80;12.40;;;19.90;64.70;;;;;;5052189;28;20523;-59
2022/11/25 10:42:57;;;;;;;13.97;13.43;;;19.90;64.60;;;;;;5052060;28;20451;-57
2022/11/25 10:45:30;;;;;;;13.40;12.63;;;19.90;64.50;;;;;;5051789;28;20931;-57
2022/11/25 10:48:14;;;;;;;14.50;13.90;;;19.90;64.40;;;;;;5052031;28;20468;-55
2022/11/25 10:50:57;;;;;;;13.47;13.07;;;19.90;64.30;;;;;;5052205;28;20558;-59
2022/11/25 10:53:26;;;;;;;13.00;12.50;;;19.90;64.30;;;;;;5051879;28;20479;-58
2022/11/25 10:56:00;;;;;;;13.70;13.20;;;19.90;64.20;;;;;;5051850;28;20480;-57
2022/11/25 10:58:31;;;;;;;13.00;12.30;;;19.90;64.20;;;;;;5051810;28;20521;-58
2022/11/25 11:01:12;;;;;;;13.20;12.60;;;19.90;64.00;;;;;;5051700;28;20475;-56
2022/11/25 11:03:39;;;;;;;13.40;12.90;;;19.90;64.00;;;;;;5051692;28;20527;-57
2022/11/25 11:06:29;;;;;;;14.13;13.70;;;19.90;63.90;;;;;;5051769;28;20768;-55
2022/11/25 11:08:56;;;;;;;12.80;12.40;;;19.90;63.90;;;;;;5051515;28;20468;-56
2022/11/25 11:11:24;;;;;;;13.47;12.97;;;19.90;63.90;;;;;;5051475;28;20515;-58
2022/11/25 11:13:59;;;;;;;13.60;13.20;;;19.90;63.90;;;;;;5051574;28;20535;-55
2022/11/25 11:16:29;;;;;;;13.50;13.00;;;19.90;63.80;;;;;;5051701;28;20994;-57
2022/11/25 11:18:57;;;;;;;12.90;12.50;;;19.90;63.80;;;;;;5051544;28;20554;-55
2022/11/25 11:21:30;;;;;;;14.50;13.70;;;19.90;63.70;;;;;;5051268;28;20483;-55
2022/11/25 11:23:58;;;;;;;13.60;13.13;;;19.90;63.60;;;;;;5051486;28;21073;-56
2022/11/25 11:26:27;;;;;;;13.00;12.50;;;19.90;63.60;;;;;;5051489;28;20444;-55
2022/11/25 11:29:00;;;;;;;12.93;12.63;;;19.90;63.60;;;;;;5051465;28;20464;-59
2022/11/25 11:31:31;;;;;;;12.83;12.43;;;19.90;64.30;;;;;;5051252;28;20479;-58
2022/11/25 11:34:04;;;;;;;13.70;13.30;;;19.90;63.50;;;;;;5051372;28;20527;-60
2022/11/25 11:36:41;;;;;;;13.50;13.00;;;19.90;63.50;;;;;;5051281;28;21013;-59
2022/11/25 11:39:35;;;;;;;12.60;12.20;;;19.90;63.50;;;;;;5051279;28;20552;-56
2022/11/25 11:42:11;;;;;;;12.80;12.40;;;19.90;63.50;;;;;;5051135;28;20479;-56
2022/11/25 11:44:48;;;;;;;12.83;12.43;;;19.90;63.50;;;;;;5051361;28;20440;-57
2022/11/25 11:47:25;;;;;;;13.33;12.77;;;19.90;63.50;;;;;;5051469;28;20442;-55
2022/11/25 11:50:08;;;;;;;12.63;12.33;;;19.90;63.50;;;;;;5051255;28;20456;-54
2022/11/25 11:52:49;;;;;;;13.13;12.73;;;19.90;63.40;;;;;;5051145;28;20515;-54
2022/11/25 11:55:27;;;;;;;14.27;13.50;;;19.90;63.40;;;;;;5051352;28;20487;-55
2022/11/25 11:58:02;;;;;;;12.83;12.53;;;19.90;63.40;;;;;;5053970;28;20526;-55
2022/11/25 12:00:33;;;;;;;13.07;12.73;;;19.90;63.40;;;;;;5055283;28;21086;-59
2022/11/25 12:03:10;;;;;;;12.87;12.47;;;19.90;63.30;;;;;;5054846;28;20483;-56
2022/11/25 12:05:37;;;;;;;13.27;12.87;;;19.90;63.40;;;;;;5055166;28;20515;-58
2022/11/25 12:08:10;;;;;;;12.70;12.30;;;19.90;63.40;;;;;;5054665;28;20507;-55
2022/11/25 12:10:40;;;;;;;13.53;13.13;;;19.90;63.40;;;;;;5054960;28;20439;-59
2022/11/25 12:13:15;;;;;;;13.10;12.60;;;19.90;63.30;;;;;;5054890;28;20463;-55
2022/11/25 12:15:52;;;;;;;13.10;12.60;;;19.90;63.30;;;;;;5055008;28;20479;-53
2022/11/25 12:18:35;;;;;;;13.07;12.57;;;19.90;63.30;;;;;;5054818;28;20495;-56
2022/11/25 12:21:04;;;;;;;16.30;15.80;;;19.90;63.40;;;;;;5054560;28;21552;-58
2022/11/25 12:23:41;;;;;;;12.70;12.30;;;19.90;63.30;;;;;;5054815;28;20497;-54
2022/11/25 12:26:14;;;;;;;13.20;12.80;;;19.90;63.40;;;;;;5054927;28;20530;-58
2022/11/25 12:28:48;;;;;;;13.27;12.70;;;20.00;63.50;;;;;;5054669;28;20518;-55
2022/11/25 12:31:19;;;;;;;13.13;12.63;;;20.00;63.50;;;;;;5054619;28;20450;-56
2022/11/25 12:33:55;;;;;;;12.40;12.00;;;20.10;64.30;;;;;;5054618;28;21003;-57
2022/11/25 12:36:30;;;;;;;11.93;11.63;;;20.10;63.50;;;;;;5054441;28;20567;-56
2022/11/25 12:39:02;;;;;;;12.70;12.30;;;20.10;63.50;;;;;;5054435;28;21073;-54
2022/11/25 12:41:37;;;;;;;12.33;12.00;;;20.10;63.40;;;;;;5054299;28;20445;-57
2022/11/25 12:44:08;;;;;;;12.90;12.50;;;20.10;63.30;;;;;;5054390;28;20545;-59
2022/11/25 12:46:39;;;;;;;13.27;12.87;;;20.20;63.30;;;;;;5054427;28;20530;-56